createdAt,value
2023-04-04T00:01:40.241Z,2.50
2023-04-04T00:04:43.436Z,2.30
2023-04-04T00:07:49.404Z,2.77
2023-04-04T00:10:58.051Z,3.10
2023-04-04T00:14:02.626Z,2.30
2023-04-04T00:17:05.819Z,2.60
2023-04-04T00:20:09.632Z,2.40
2023-04-04T00:23:14.228Z,2.33
2023-04-04T00:26:17.592Z,2.40
2023-04-04T00:29:20.766Z,2.57
2023-04-04T00:32:24.061Z,2.40
2023-04-04T00:35:27.360Z,3.00
2023-04-04T00:38:31.995Z,2.30
2023-04-04T00:41:35.998Z,2.53
2023-04-04T00:44:39.239Z,2.50
2023-04-04T00:47:44.539Z,2.43
2023-04-04T00:50:47.898Z,2.20
2023-04-04T00:53:53.401Z,2.30
2023-04-04T00:56:56.673Z,2.33
2023-04-04T01:00:02.878Z,2.40
2023-04-04T01:03:07.938Z,3.03
2023-04-04T01:06:11.383Z,2.63
2023-04-04T01:09:16.343Z,3.00
2023-04-04T01:12:20.182Z,2.77
2023-04-04T01:15:23.383Z,2.77
2023-04-04T01:18:27.586Z,2.93
2023-04-04T01:21:31.365Z,3.00
2023-04-04T01:24:37.237Z,3.20
2023-04-04T01:27:41.892Z,3.30
2023-04-04T01:30:46.476Z,2.67
2023-04-04T01:33:56.901Z,3.03
2023-04-04T01:37:06.640Z,2.60
2023-04-04T01:40:17.711Z,3.00
2023-04-04T01:43:22.415Z,2.90
2023-04-04T01:46:25.786Z,2.93
2023-04-04T01:49:29.033Z,2.50
2023-04-04T01:52:32.264Z,3.03
2023-04-04T01:55:35.434Z,2.60
2023-04-04T01:58:40.083Z,3.17
2023-04-04T02:01:43.827Z,3.17
2023-04-04T02:04:47.734Z,3.00
2023-04-04T02:07:51.398Z,4.43
2023-04-04T02:10:54.531Z,3.10
2023-04-04T02:13:59.049Z,2.80
2023-04-04T02:17:02.204Z,2.80
2023-04-04T02:20:05.814Z,2.87
2023-04-04T02:23:09.254Z,2.70
2023-04-04T02:26:12.406Z,3.77
2023-04-04T02:29:17.081Z,3.60
2023-04-04T02:32:20.253Z,3.33
2023-04-04T02:35:23.374Z,2.80
2023-04-04T02:38:26.884Z,3.07
2023-04-04T02:41:30.029Z,3.20
2023-04-04T02:44:34.524Z,3.20
2023-04-04T02:47:37.864Z,2.83
2023-04-04T02:50:41.272Z,2.93
2023-04-04T02:53:44.561Z,3.03
2023-04-04T02:56:47.714Z,3.50
2023-04-04T02:59:52.462Z,2.93
2023-04-04T03:02:56.482Z,2.53
2023-04-04T03:06:00.881Z,2.70
2023-04-04T03:09:05.044Z,2.70
2023-04-04T03:12:09.085Z,3.17
2023-04-04T03:15:14.575Z,2.90
2023-04-04T03:18:17.775Z,3.37
2023-04-04T03:21:20.976Z,2.90
2023-04-04T03:24:24.230Z,3.40
2023-04-04T03:27:27.465Z,2.97
2023-04-04T03:30:31.986Z,2.73
2023-04-04T03:33:37.889Z,2.23
2023-04-04T03:36:41.026Z,2.77
2023-04-04T03:39:44.229Z,2.77
2023-04-04T03:42:47.363Z,2.80
2023-04-04T03:45:51.905Z,2.73
2023-04-04T03:48:55.053Z,3.13
2023-04-04T03:51:58.214Z,3.43
2023-04-04T03:55:01.342Z,3.43
2023-04-04T03:58:04.664Z,3.10
2023-04-04T04:01:09.237Z,3.00
2023-04-04T04:04:12.444Z,2.80
2023-04-04T04:07:15.590Z,2.93
2023-04-04T04:10:18.922Z,3.03
2023-04-04T04:13:23.016Z,2.87
2023-04-04T04:16:27.989Z,2.90
2023-04-04T04:19:31.292Z,2.80
2023-04-04T04:22:34.452Z,3.40
2023-04-04T04:25:37.875Z,3.20
2023-04-04T04:28:41.008Z,3.57
2023-04-04T04:31:45.622Z,3.53
2023-04-04T04:34:49.167Z,2.80
2023-04-04T04:37:52.513Z,3.77
2023-04-04T04:40:55.655Z,3.63
2023-04-04T04:43:58.799Z,3.23
2023-04-04T04:47:05.166Z,4.60
2023-04-04T04:50:09.402Z,3.70
2023-04-04T04:53:12.537Z,3.70
2023-04-04T04:56:15.685Z,4.03
2023-04-04T04:59:18.991Z,5.47
2023-04-04T05:02:23.692Z,5.30
2023-04-04T05:05:27.087Z,5.00
2023-04-04T05:08:30.506Z,5.73
2023-04-04T05:11:33.769Z,9.50
2023-04-04T05:14:37.639Z,6.00
2023-04-04T05:17:42.182Z,5.83
2023-04-04T05:20:45.503Z,4.93
2023-04-04T05:23:48.673Z,7.87
2023-04-04T05:26:51.802Z,6.13
2023-04-04T05:29:55.022Z,4.83
2023-04-04T05:32:59.550Z,3.83
2023-04-04T05:36:03.011Z,4.20
2023-04-04T05:39:06.366Z,4.60
2023-04-04T05:42:09.442Z,4.43
2023-04-04T05:45:12.905Z,3.77
2023-04-04T05:48:17.407Z,5.03
2023-04-04T05:51:20.565Z,4.03
2023-04-04T05:54:23.790Z,4.50
2023-04-04T05:57:26.954Z,4.20
2023-04-04T06:00:31.121Z,3.50
2023-04-04T06:03:35.849Z,4.17
2023-04-04T06:06:39.153Z,3.40
2023-04-04T06:09:42.313Z,3.60
2023-04-04T06:12:45.589Z,3.40
2023-04-04T06:15:48.864Z,3.60
2023-04-04T06:18:53.439Z,3.13
2023-04-04T06:21:56.673Z,3.40
2023-04-04T06:24:59.806Z,2.40
2023-04-04T06:28:03.657Z,3.17
2023-04-04T06:31:08.889Z,2.70
2023-04-04T06:34:13.404Z,2.53
2023-04-04T06:37:16.542Z,2.30
2023-04-04T06:40:19.682Z,2.30
2023-04-04T06:43:22.838Z,2.10
2023-04-04T06:46:27.149Z,2.53
2023-04-04T06:49:31.701Z,2.03
2023-04-04T06:52:34.925Z,2.10
2023-04-04T06:55:38.655Z,2.27
2023-04-04T06:58:42.151Z,2.10
2023-04-04T07:01:45.641Z,2.40
2023-04-04T07:04:50.180Z,2.70
2023-04-04T07:07:54.680Z,2.23
2023-04-04T07:10:58.102Z,2.40
2023-04-04T07:14:01.636Z,2.80
2023-04-04T07:17:13.675Z,1.90
2023-04-04T07:20:27.076Z,2.40
2023-04-04T07:23:30.290Z,2.20
2023-04-04T07:26:35.123Z,1.80
2023-04-04T07:29:38.262Z,2.77
2023-04-04T07:32:41.542Z,2.40
2023-04-04T07:35:46.133Z,2.47
2023-04-04T07:38:49.356Z,2.70
2023-04-04T07:41:52.485Z,2.50
2023-04-04T07:44:55.600Z,2.93
2023-04-04T07:47:59.516Z,2.70
2023-04-04T07:51:05.665Z,2.87
2023-04-04T07:54:09.060Z,2.13
2023-04-04T07:57:12.413Z,2.63
2023-04-04T08:00:17.685Z,3.30
2023-04-04T08:03:20.966Z,3.10
2023-04-04T08:06:25.748Z,3.07
2023-04-04T08:09:31.448Z,3.07
2023-04-04T08:12:34.597Z,3.17
2023-04-04T08:15:37.750Z,3.43
2023-04-04T08:18:40.985Z,2.80
2023-04-04T08:21:45.704Z,3.20
2023-04-04T08:24:48.801Z,2.30
2023-04-04T08:27:52.315Z,2.83
2023-04-04T08:30:55.716Z,2.27
2023-04-04T08:33:58.875Z,2.73
2023-04-04T08:37:03.446Z,3.27
2023-04-04T08:40:07.853Z,2.77
2023-04-04T08:43:13.682Z,2.57
2023-04-04T08:46:17.719Z,2.17
2023-04-04T08:49:22.445Z,2.53
2023-04-04T08:52:29.608Z,2.53
2023-04-04T08:55:32.829Z,2.72
2023-04-04T08:58:39.032Z,3.20
2023-04-04T09:01:42.351Z,2.50
2023-04-04T09:04:54.623Z,2.55
2023-04-04T09:08:08.491Z,2.10
2023-04-04T09:11:13.083Z,2.47
2023-04-04T09:14:16.384Z,2.03
2023-04-04T09:17:19.563Z,2.30
2023-04-04T09:20:39.088Z,2.65
2023-04-04T09:23:44.750Z,2.30
2023-04-04T09:26:52.348Z,2.40
2023-04-04T09:29:56.273Z,2.38
2023-04-04T09:33:02.605Z,2.33
2023-04-04T09:36:10.384Z,2.63
2023-04-04T09:39:16.761Z,2.22
2023-04-04T09:42:20.450Z,2.25
2023-04-04T09:45:32.401Z,1.85
2023-04-04T09:48:37.129Z,2.08
2023-04-04T09:51:42.601Z,2.05
2023-04-04T09:54:56.878Z,1.83
2023-04-04T09:58:02.667Z,2.05
2023-04-04T10:01:09.955Z,1.90
2023-04-04T10:04:14.574Z,2.83
2023-04-04T10:07:17.815Z,2.20
2023-04-04T10:10:22.504Z,2.47
2023-04-04T10:13:28.249Z,2.03
2023-04-04T10:16:34.539Z,2.20
2023-04-04T10:19:39.704Z,2.50
2023-04-04T10:22:45.470Z,1.90
2023-04-04T10:25:50.055Z,2.13
2023-04-04T10:28:53.445Z,2.03
2023-04-04T10:32:03.521Z,1.80
2023-04-04T10:35:10.998Z,1.80
2023-04-04T10:38:14.875Z,2.47
2023-04-04T10:41:20.839Z,1.90
2023-04-04T10:44:29.424Z,1.97
2023-04-04T10:47:33.315Z,2.07
2023-04-04T10:50:37.378Z,2.37
2023-04-04T10:53:42.127Z,1.83
2023-04-04T10:56:47.421Z,1.97
2023-04-04T10:59:58.217Z,1.80
2023-04-04T11:03:02.611Z,1.80
2023-04-04T11:06:15.926Z,2.10
2023-04-04T11:09:51.534Z,2.00
2023-04-04T11:13:11.293Z,1.63
2023-04-04T11:16:21.317Z,1.60
2023-04-04T11:19:25.561Z,1.90
2023-04-04T11:22:28.800Z,1.90
2023-04-04T11:25:42.989Z,2.10
2023-04-04T11:28:48.566Z,2.37
2023-04-04T11:31:52.420Z,2.10
2023-04-04T11:34:58.854Z,1.97
2023-04-04T11:38:03.899Z,1.77
2023-04-04T11:41:10.502Z,1.73
2023-04-04T11:44:16.410Z,1.80
2023-04-04T11:47:22.196Z,2.07
2023-04-04T11:50:25.579Z,1.90
2023-04-04T11:53:32.459Z,1.63
2023-04-04T11:56:37.320Z,1.50
2023-04-04T11:59:42.852Z,2.00
2023-04-04T12:02:46.154Z,2.17
2023-04-04T12:05:50.982Z,1.57
2023-04-04T12:08:54.234Z,1.60
2023-04-04T12:11:58.741Z,1.50
2023-04-04T12:15:16.636Z,1.77
2023-04-04T12:18:24.082Z,1.60
2023-04-04T12:21:27.428Z,1.70
2023-04-04T12:24:30.770Z,1.50
2023-04-04T12:27:34.994Z,1.80
2023-04-04T12:30:39.945Z,1.17
2023-04-04T12:33:43.542Z,1.30
2023-04-04T12:36:49.095Z,1.47
2023-04-04T12:39:52.443Z,1.87
2023-04-04T12:42:56.639Z,1.93
2023-04-04T12:46:01.444Z,2.10
2023-04-04T12:49:06.555Z,1.60
2023-04-04T12:52:19.702Z,1.60
2023-04-04T12:55:24.973Z,1.60
2023-04-04T12:58:28.466Z,2.90
2023-04-04T13:01:33.797Z,1.60
2023-04-04T13:04:37.949Z,1.90
2023-04-04T13:07:44.468Z,1.43
2023-04-04T13:11:02.916Z,2.03
2023-04-04T13:14:06.139Z,1.73
2023-04-04T13:17:10.953Z,1.70
2023-04-04T13:20:15.659Z,1.13
2023-04-04T13:23:19.552Z,1.50
2023-04-04T13:26:23.305Z,1.60
2023-04-04T13:29:26.936Z,1.43
2023-04-04T13:32:31.582Z,1.47
2023-04-04T13:35:34.805Z,1.37
2023-04-04T13:38:38.341Z,1.50
2023-04-04T13:41:41.556Z,1.50
2023-04-04T13:44:44.839Z,1.90
2023-04-04T13:47:49.497Z,1.80
2023-04-04T13:50:54.091Z,1.80
2023-04-04T13:53:57.211Z,1.80
2023-04-04T13:57:00.359Z,1.60
2023-04-04T14:00:05.002Z,1.60
2023-04-04T14:03:10.070Z,2.10
2023-04-04T14:06:13.580Z,1.83
2023-04-04T14:09:16.742Z,1.63
2023-04-04T14:12:20.071Z,1.87
2023-04-04T14:15:24.251Z,1.60
2023-04-04T14:18:28.837Z,1.40
2023-04-04T14:21:32.103Z,1.53
2023-04-04T14:24:35.281Z,1.80
2023-04-04T14:27:38.387Z,1.60
2023-04-04T14:30:41.546Z,1.83
2023-04-04T14:33:46.093Z,1.83
2023-04-04T14:36:49.575Z,1.70
2023-04-04T14:39:52.950Z,1.70
2023-04-04T14:42:56.219Z,1.57
2023-04-04T14:45:59.396Z,1.60
2023-04-04T14:49:06.319Z,1.80
2023-04-04T14:52:09.612Z,1.93
2023-04-04T14:55:12.735Z,1.90
2023-04-04T14:58:16.530Z,1.67
2023-04-04T15:01:21.472Z,2.17
2023-04-04T15:04:26.300Z,1.70
2023-04-04T15:07:29.465Z,1.80
2023-04-04T15:10:32.613Z,1.60
2023-04-04T15:13:36.393Z,1.30
2023-04-04T15:16:39.611Z,1.90
2023-04-04T15:19:44.158Z,2.60
2023-04-04T15:22:47.413Z,2.27
2023-04-04T15:25:50.609Z,1.93
2023-04-04T15:28:53.719Z,1.70
2023-04-04T15:31:56.781Z,1.70
2023-04-04T15:35:03.669Z,1.73
2023-04-04T15:38:06.837Z,2.40
2023-04-04T15:41:10.893Z,1.70
2023-04-04T15:44:14.023Z,1.63
2023-04-04T15:47:17.955Z,1.83
2023-04-04T15:50:22.583Z,1.53
2023-04-04T15:53:25.826Z,1.80
2023-04-04T15:56:29.011Z,2.10
2023-04-04T15:59:33.388Z,1.93
2023-04-04T16:02:36.746Z,1.77
2023-04-04T16:05:41.461Z,2.33
2023-04-04T16:08:44.997Z,2.13
2023-04-04T16:11:48.272Z,2.07
2023-04-04T16:14:51.457Z,2.17
2023-04-04T16:17:58.733Z,1.97
2023-04-04T16:21:05.806Z,2.27
2023-04-04T16:24:09.434Z,1.83
2023-04-04T16:27:13.075Z,2.10
2023-04-04T16:30:16.625Z,1.57
2023-04-04T16:33:19.936Z,2.17
2023-04-04T16:36:24.599Z,2.30
2023-04-04T16:39:27.781Z,2.00
2023-04-04T16:42:31.092Z,2.80
2023-04-04T16:45:34.432Z,2.20
2023-04-04T16:48:37.613Z,2.57
2023-04-04T16:51:42.145Z,2.20
2023-04-04T16:54:45.370Z,2.40
2023-04-04T16:57:48.737Z,2.27
2023-04-04T17:00:51.912Z,2.13
2023-04-04T17:03:55.144Z,2.60
2023-04-04T17:06:59.739Z,2.23
2023-04-04T17:10:03.023Z,1.80
2023-04-04T17:13:06.496Z,2.10
2023-04-04T17:16:10.207Z,2.70
2023-04-04T17:19:13.533Z,2.97
2023-04-04T17:22:18.216Z,2.50
2023-04-04T17:25:26.971Z,2.40
2023-04-04T17:28:30.180Z,2.73
2023-04-04T17:31:34.051Z,2.13
2023-04-04T17:34:37.304Z,3.37
2023-04-04T17:37:42.105Z,2.23
2023-04-04T17:40:45.643Z,3.00
2023-04-04T17:43:49.480Z,3.07
2023-04-04T17:46:53.072Z,2.60
2023-04-04T17:49:58.771Z,3.63
2023-04-04T17:53:03.788Z,3.20
2023-04-04T17:56:07.151Z,3.00
2023-04-04T17:59:12.851Z,3.30
2023-04-04T18:02:16.684Z,3.33
2023-04-04T18:05:20.495Z,3.40
2023-04-04T18:08:25.026Z,3.27
2023-04-04T18:11:30.214Z,2.27
2023-04-04T18:14:33.768Z,2.90
2023-04-04T18:17:37.860Z,2.40
2023-04-04T18:20:41.684Z,2.67
2023-04-04T18:23:46.279Z,2.50
2023-04-04T18:26:52.248Z,3.00
2023-04-04T18:29:56.352Z,2.80
2023-04-04T18:32:59.927Z,3.30
2023-04-04T18:36:05.290Z,3.20
2023-04-04T18:39:10.188Z,3.27
2023-04-04T18:42:14.094Z,2.97
2023-04-04T18:45:18.386Z,2.67
2023-04-04T18:48:25.050Z,2.80
2023-04-04T18:51:29.095Z,3.87
2023-04-04T18:54:33.884Z,4.23
2023-04-04T18:57:38.707Z,3.40
2023-04-04T19:00:42.967Z,4.30
2023-04-04T19:03:48.617Z,4.00
2023-04-04T19:06:54.395Z,3.50
2023-04-04T19:09:59.710Z,3.63
2023-04-04T19:13:03.527Z,3.27
2023-04-04T19:16:11.062Z,3.00
2023-04-04T19:19:15.325Z,3.93
2023-04-04T19:22:20.568Z,3.90
2023-04-04T19:25:26.534Z,2.60
2023-04-04T19:28:31.116Z,3.90
2023-04-04T19:31:36.386Z,3.20
2023-04-04T19:34:40.348Z,3.93
2023-04-04T19:37:45.625Z,3.30
2023-04-04T19:40:52.905Z,4.40
2023-04-04T19:43:56.497Z,3.97
2023-04-04T19:47:01.416Z,3.80
2023-04-04T19:50:08.211Z,6.10
2023-04-04T19:53:22.792Z,4.20
2023-04-04T19:56:28.989Z,3.83
2023-04-04T20:00:01.959Z,3.73
2023-04-04T20:03:08.979Z,4.80
2023-04-04T20:06:14.275Z,3.80
2023-04-04T20:09:35.029Z,3.90
2023-04-04T20:12:40.498Z,3.50
2023-04-04T20:16:02.182Z,3.90
2023-04-04T20:19:08.374Z,3.40
2023-04-04T20:22:12.785Z,4.03
2023-04-04T20:25:41.144Z,4.27
2023-04-04T20:28:48.786Z,3.80
2023-04-04T20:31:54.307Z,4.20
2023-04-04T20:34:58.735Z,4.13
2023-04-04T20:38:01.851Z,4.47
2023-04-04T20:41:25.286Z,5.73
2023-04-04T20:44:30.173Z,5.70
2023-04-04T20:47:43.260Z,4.67
2023-04-04T20:50:47.502Z,4.93
2023-04-04T20:53:50.911Z,4.90
2023-04-04T20:56:55.519Z,5.10
2023-04-04T21:00:00.058Z,4.47
2023-04-04T21:03:24.295Z,4.83
2023-04-04T21:06:31.079Z,5.53
2023-04-04T21:09:34.400Z,6.00
2023-04-04T21:12:37.623Z,5.10
2023-04-04T21:15:42.247Z,5.17
2023-04-04T21:18:46.105Z,5.33
2023-04-04T21:21:49.329Z,5.40
2023-04-04T21:24:52.475Z,5.30
2023-04-04T21:27:57.020Z,6.03
2023-04-04T21:31:02.368Z,4.83
2023-04-04T21:34:10.700Z,5.03
2023-04-04T21:37:16.977Z,4.70
2023-04-04T21:40:20.118Z,5.40
2023-04-04T21:43:23.206Z,4.87
2023-04-04T21:46:29.102Z,5.10
2023-04-04T21:49:32.373Z,5.83
2023-04-04T21:52:35.524Z,5.33
2023-04-04T21:55:38.742Z,5.07
2023-04-04T21:58:41.943Z,5.83
2023-04-04T22:01:46.535Z,5.30
2023-04-04T22:04:49.822Z,5.77
2023-04-04T22:07:53.010Z,5.37
2023-04-04T22:14:07.491Z,6.03
2023-04-04T22:17:22.844Z,5.97
2023-04-04T22:20:25.978Z,6.00
2023-04-04T22:23:35.697Z,6.30
2023-04-04T22:26:41.809Z,5.20
2023-04-04T22:29:45.017Z,5.30
2023-04-04T22:32:49.552Z,4.97
2023-04-04T22:35:53.396Z,5.17
2023-04-04T22:38:58.139Z,7.60
2023-04-04T22:42:01.614Z,6.63
2023-04-04T22:45:05.466Z,6.17
2023-04-04T22:48:10.240Z,5.00
2023-04-04T22:51:14.941Z,4.70
2023-04-04T22:54:18.325Z,5.90
2023-04-04T22:57:21.422Z,5.00
2023-04-04T23:00:24.619Z,4.43
2023-04-04T23:03:29.148Z,4.70
2023-04-04T23:06:32.599Z,4.20
2023-04-04T23:09:35.859Z,4.57
2023-04-04T23:12:39.580Z,4.27
2023-04-04T23:15:45.104Z,5.30
2023-04-04T23:18:49.661Z,5.30
2023-04-04T23:21:53.922Z,4.80
2023-04-04T23:24:57.121Z,4.73
2023-04-04T23:28:00.471Z,4.87
2023-04-04T23:31:03.774Z,4.40
2023-04-04T23:34:08.421Z,4.50
2023-04-04T23:37:11.510Z,3.87
2023-04-04T23:40:14.793Z,4.47
2023-04-04T23:43:17.929Z,4.70
2023-04-04T23:46:21.397Z,5.00
2023-04-04T23:49:26.023Z,5.03
2023-04-04T23:52:29.144Z,5.70
2023-04-04T23:55:32.343Z,4.63
2023-04-04T23:58:35.482Z,4.80
